Terminal Aerodrome Forecast
Issued by NWS

Home | Current Version | Previous Version | Text Only | Print | Product List | Glossary On
Versions: 1 2 3 4 5 6 7 8 9 10 11 12 13 14 15 16 17 18
000
FTUS46 KMFR 201606 AAA
TAFRBG
TAF AMD
KRBG 201606Z 2016/2112 17005KT 6SM RA BR SCT025 OVC050
      WS020/20035KT
      TEMPO 2016/2020 2SM RA BR BKN025
     FM202000 17005KT 6SM -RA BR OVC010 WS020/20035KT
     FM210200 19002KT 4SM -RA BR OVC007
     FM210900 19002KT 2SM -RA BR OVC004=

USA.gov is the U.S. government's official web portal to all federal, state and local government web resources and services.